Weather reports worldwide

Advertisment
Bielsa, Spain (8103): temperature & dewpoint: 18.03.2019 17:00:00 - 24.03.2019 17:00:00 (CET)Bielsa, Spain (8103): wind speed & gusts: 18.03.2019 17:00:00 - 24.03.2019 17:00:00 (CET)Bielsa, Spain (8103): wind direction: 18.03.2019 17:00:00 - 24.03.2019 17:00:00 (CET)Bielsa, Spain (8103): visibility: 18.03.2019 17:00:00 - 24.03.2019 17:00:00 (CET)Bielsa, Spain (8103): sunshine duration: 18.03.2019 17:00:00 - 24.03.2019 17:00:00 (CET)Bielsa, Spain (8103): precipitation: 18.03.2019 17:00:00 - 24.03.2019 17:00:00 (CET)
Date & Time tt [°C] td [°C] ff [km/h] ff [kn] fx [km/h] fx [kn] dd vv [km] sd [min] rr [mm]
24.03.2019 17:00:00 - - - - - - - - - -
24.03.2019 16:00:00 19,0 -5,1 16 9 34 18 NNW 20 59 0,0
24.03.2019 15:00:00 19,5 -6,4 14 8 34 19 NW 20 55 0,0
24.03.2019 14:00:00 19,9 -7,5 16 8 34 18 NW 20 60 0,0
24.03.2019 13:00:00 19,2 -9,0 16 9 31 17 NW 20 60 -
24.03.2019 12:00:00 18,8 -8,6 14 7 35 19 NW 20 60 0,0
24.03.2019 11:00:00 17,4 -9,4 17 9 29 16 NW 20 60 0,0
24.03.2019 10:00:00 15,1 -7,1 10 5 20 11 NW 20 60 0,0
24.03.2019 09:00:00 7,2 -2,7 3 1 14 8 W 20 37 0,0
24.03.2019 08:00:00 1,6 -2,0 0 0 9 5 N 20 0 0,0
24.03.2019 07:00:00 1,8 -1,7 4 2 12 6 WNW 20 0 -
24.03.2019 06:00:00 1,2 -1,7 4 2 14 7 WNW 20 0 0,0
24.03.2019 05:00:00 1,5 -1,7 3 2 15 8 WNW 20 0 0,0
24.03.2019 04:00:00 1,9 -1,4 3 2 10 6 NW 20 0 0,0
24.03.2019 03:00:00 2,9 -1,0 5 3 16 8 WNW 20 0 0,0
24.03.2019 02:00:00 2,8 -0,7 1 1 9 5 N 20 0 0,0
24.03.2019 01:00:00 3,6 -0,5 4 2 14 8 WNW 20 0 -
24.03.2019 00:00:00 4,4 -0,5 3 2 19 10 NW 20 0 0,0
23.03.2019 23:00:00 5,5 -0,3 4 2 13 7 WNW 20 0 0,0
23.03.2019 22:00:00 6,4 0,0 4 2 16 9 WNW 20 0 0,0
23.03.2019 21:00:00 7,5 0,0 4 2 16 8 NW 20 0 0,0
23.03.2019 20:00:00 9,0 0,4 1 1 15 8 N 20 0 0,0
23.03.2019 19:00:00 11,6 0,4 2 1 10 5 SSE 20 0 -
23.03.2019 18:00:00 14,1 0,4 2 1 15 8 NW 20 0 0,0
23.03.2019 17:00:00 17,9 -3,6 6 3 16 9 SSE 20 13 0,0
23.03.2019 16:00:00 21,0 -5,1 8 4 25 13 SE 20 58 0,0
23.03.2019 15:00:00 21,4 -4,8 10 5 28 15 SE 20 58 0,0
23.03.2019 14:00:00 21,5 -4,8 10 5 36 19 SE 20 58 0,0
23.03.2019 13:00:00 20,3 -2,7 10 5 32 17 SE 20 60 -
23.03.2019 12:00:00 18,8 -3,3 11 6 28 15 SE 20 60 0,0
23.03.2019 11:00:00 17,2 -2,5 9 5 26 14 SE 20 60 0,0
23.03.2019 10:00:00 12,6 -1,0 4 2 14 8 SE 20 59 0,0
23.03.2019 09:00:00 7,4 -0,5 3 2 13 7 NW 20 38 0,0
23.03.2019 08:00:00 1,8 -1,2 1 1 14 8 E 20 0 0,0
23.03.2019 07:00:00 1,4 -1,2 4 2 11 6 WNW 20 0 -
23.03.2019 06:00:00 1,4 -1,4 4 2 12 7 WNW 20 0 0,0
23.03.2019 05:00:00 1,4 -1,4 5 3 14 8 WNW 20 0 0,0
23.03.2019 04:00:00 1,6 -1,0 3 1 17 9 NW 20 0 0,0
23.03.2019 03:00:00 1,7 -1,0 3 2 13 7 WNW 20 0 0,0
23.03.2019 02:00:00 2,2 -1,0 4 2 14 8 WNW 20 0 0,0
23.03.2019 01:00:00 2,9 -0,7 4 2 15 8 WNW 20 0 -
23.03.2019 00:00:00 3,0 -0,7 4 2 11 6 WNW 20 0 0,0
22.03.2019 23:00:00 4,0 -0,5 4 2 13 7 WNW 20 0 0,0
22.03.2019 22:00:00 4,8 0,0 4 2 14 8 WNW 20 0 0,0
22.03.2019 21:00:00 5,9 0,0 3 2 15 8 WNW 20 0 0,0
22.03.2019 20:00:00 7,4 0,6 4 2 12 7 NNW 20 0 0,0
22.03.2019 19:00:00 9,0 0,9 4 2 8 4 NW 20 0 -
22.03.2019 18:00:00 11,3 1,3 2 1 12 6 NW 20 0 0,0
22.03.2019 17:00:00 14,5 0,0 4 2 20 11 SSE 20 8 0,0
22.03.2019 16:00:00 18,1 -1,7 8 4 25 13 SSE 20 58 0,0
22.03.2019 15:00:00 18,7 -2,2 10 5 28 15 SSE 20 60 0,0
22.03.2019 14:00:00 18,8 -2,7 9 5 27 15 SE 20 60 0,0
22.03.2019 13:00:00 18,6 -3,0 8 5 29 15 SE 20 60 -
22.03.2019 12:00:00 16,6 -3,6 10 5 26 14 SSE 20 60 0,0
22.03.2019 11:00:00 14,5 -3,9 6 3 17 9 SSE 20 60 0,0
22.03.2019 10:00:00 9,6 -3,0 2 1 6 4 SSE 20 59 0,0
22.03.2019 09:00:00 4,0 -1,7 2 1 5 3 ESE 20 37 0,0
22.03.2019 08:00:00 -1,1 -4,2 1 1 13 7 NNW 20 0 0,0
22.03.2019 07:00:00 -1,8 -4,5 2 1 9 5 NNW 20 0 -
22.03.2019 06:00:00 -1,4 -4,5 3 2 14 8 WNW 20 0 0,0
22.03.2019 05:00:00 -1,1 -4,5 2 1 14 8 WNW 20 0 0,0
22.03.2019 04:00:00 -0,8 -4,8 4 2 14 8 WNW 20 0 0,0
22.03.2019 03:00:00 -0,9 -4,8 3 2 10 5 NW 20 0 0,0
22.03.2019 02:00:00 -0,2 -4,8 5 3 14 8 W 20 0 0,0
22.03.2019 01:00:00 -0,2 -4,8 5 3 11 6 WNW 20 0 -
22.03.2019 00:00:00 0,2 -4,8 4 2 15 8 WNW 20 0 0,0
21.03.2019 23:00:00 1,0 -4,5 4 2 19 10 WNW 20 0 0,0
21.03.2019 22:00:00 2,0 -4,2 3 2 11 6 NW 20 0 0,0
21.03.2019 21:00:00 3,2 -4,2 2 1 14 8 NW 20 0 0,0
21.03.2019 20:00:00 4,4 -4,2 5 3 11 6 WNW 20 0 0,0
21.03.2019 19:00:00 5,9 -3,9 5 3 8 5 NNW 20 0 -
21.03.2019 18:00:00 7,8 -3,6 3 2 13 7 NNW 20 0 0,0
21.03.2019 17:00:00 10,4 -5,1 4 2 24 13 S 20 7 0,0
21.03.2019 16:00:00 14,8 -7,8 9 5 23 12 SSE 20 60 0,0
21.03.2019 15:00:00 16,0 -8,2 10 5 27 14 SE 20 60 0,0
21.03.2019 14:00:00 15,5 -8,6 10 6 29 15 SE 20 60 0,0
21.03.2019 13:00:00 14,4 -9,0 12 6 31 17 SSE 20 60 -
21.03.2019 12:00:00 13,6 -9,0 10 5 32 18 SE 20 60 0,0
21.03.2019 11:00:00 11,5 -10,8 12 6 28 15 ESE 20 60 0,0
21.03.2019 10:00:00 7,3 -10,3 3 2 7 4 SE 20 59 0,0
21.03.2019 09:00:00 1,4 -8,6 2 1 6 3 E 20 34 0,0
21.03.2019 08:00:00 -2,9 -7,8 2 1 16 9 N 20 0 0,0
21.03.2019 07:00:00 -3,3 -8,2 5 3 16 9 W 20 0 -
21.03.2019 06:00:00 -3,3 -8,2 3 2 13 7 ESE 20 0 0,0
21.03.2019 05:00:00 -3,5 -7,8 3 2 14 8 WNW 20 0 0,0
21.03.2019 04:00:00 -2,8 -7,8 3 2 10 5 W 20 0 0,0
21.03.2019 03:00:00 -2,1 -7,1 3 2 13 7 WNW 20 0 0,0
21.03.2019 02:00:00 -1,8 -7,1 2 1 13 7 WNW 20 0 0,0
21.03.2019 01:00:00 -0,8 -7,1 4 2 15 8 WNW 20 0 -
21.03.2019 00:00:00 0,4 -7,1 6 3 16 9 NW 20 0 0,0
20.03.2019 23:00:00 1,8 -7,5 6 3 16 8 NW 20 0 0,0
20.03.2019 22:00:00 4,8 -7,5 6 3 41 22 NNW 20 0 0,0
20.03.2019 21:00:00 5,9 -7,1 19 10 50 27 NW 20 0 0,0
20.03.2019 20:00:00 6,5 -6,7 19 10 48 26 NW 20 0 0,0
20.03.2019 19:00:00 7,5 -6,7 26 14 50 27 WNW 20 0 -
20.03.2019 18:00:00 8,9 -10,8 21 11 46 25 NW 20 0 0,0
20.03.2019 17:00:00 10,0 -13,3 22 12 48 26 NW 20 4 0,0
20.03.2019 16:00:00 12,5 -15,1 20 11 50 27 NW 20 60 0,0
20.03.2019 15:00:00 12,6 -16,5 22 12 55 30 NW 20 60 0,0
20.03.2019 14:00:00 12,0 -13,9 25 14 52 28 NW 20 60 0,0
20.03.2019 13:00:00 11,0 -13,3 25 14 50 27 NW 20 60 -
20.03.2019 12:00:00 10,0 -13,9 27 14 51 28 NW 20 60 0,0
20.03.2019 11:00:00 9,2 -13,3 26 14 46 25 NW 20 60 0,0
20.03.2019 10:00:00 8,7 -15,8 18 10 38 20 NW 20 58 0,0
20.03.2019 09:00:00 6,7 -16,5 19 10 37 20 NW 20 33 0,0
20.03.2019 08:00:00 2,2 -9,9 11 6 31 17 NNW 20 0 0,0
20.03.2019 07:00:00 2,1 -9,0 13 7 32 17 NW 20 0 -
20.03.2019 06:00:00 3,1 -9,0 14 8 31 17 WNW 20 0 0,0
20.03.2019 05:00:00 2,1 -7,1 13 7 33 18 NW 20 0 0,0
20.03.2019 04:00:00 4,0 -8,2 12 7 35 19 NW 20 0 0,0
20.03.2019 03:00:00 4,0 -7,8 13 7 34 18 NW 20 0 0,0
20.03.2019 02:00:00 4,3 -7,5 12 7 34 18 NW 20 0 0,0
20.03.2019 01:00:00 4,5 -6,4 11 6 31 17 WNW 20 0 -
20.03.2019 00:00:00 4,4 -6,4 10 5 25 14 W 20 0 0,0
19.03.2019 23:00:00 4,0 -4,8 4 2 25 13 N 20 0 0,0
19.03.2019 22:00:00 3,9 -5,1 8 4 23 12 WNW 20 0 0,0
19.03.2019 21:00:00 3,8 -3,9 4 2 16 8 E 20 0 0,0
19.03.2019 20:00:00 4,5 -4,5 4 2 16 8 N 20 0 0,0
19.03.2019 19:00:00 5,5 -4,8 6 3 18 10 NE 20 0 -
19.03.2019 18:00:00 6,8 -4,5 6 3 28 15 E 20 0 0,0
19.03.2019 17:00:00 7,9 -6,7 9 5 35 19 WNW 20 2 0,0
19.03.2019 16:00:00 9,8 -6,0 14 7 37 20 WNW 20 50 0,0
19.03.2019 15:00:00 - - - - - - - - - -
19.03.2019 14:00:00 9,7 -6,4 14 8 45 24 WNW 20 49 0,0
19.03.2019 13:00:00 9,3 -6,0 18 10 42 23 NW 20 49 -
19.03.2019 12:00:00 8,6 -6,4 16 8 34 18 NW 20 18 0,0
19.03.2019 11:00:00 7,5 -5,1 13 7 33 18 NW 20 0 0,0
19.03.2019 10:00:00 6,8 -6,0 13 7 29 16 NW 20 0 0,0
19.03.2019 09:00:00 6,3 -5,1 10 5 41 22 NW 20 0 0,0
19.03.2019 08:00:00 5,3 -4,8 13 7 32 17 NW 20 0 0,0
19.03.2019 07:00:00 4,7 -4,2 10 5 22 12 NW 20 0 -
19.03.2019 06:00:00 3,9 -4,2 9 5 19 11 NW 20 0 0,0
19.03.2019 05:00:00 1,2 -3,6 1 1 16 9 WNW 20 0 0,0
19.03.2019 04:00:00 2,5 -3,3 1 1 16 8 N 20 0 0,0
19.03.2019 03:00:00 3,5 -3,9 6 4 17 9 NW 20 0 0,0
19.03.2019 02:00:00 2,7 -5,1 2 1 16 9 NW 20 0 0,0
19.03.2019 01:00:00 4,1 -6,4 5 3 35 19 NNW 20 0 -
19.03.2019 00:00:00 4,2 -8,2 9 5 27 15 NW 20 0 0,0
18.03.2019 23:00:00 2,8 -6,0 9 5 17 9 NW 20 0 0,0
18.03.2019 22:00:00 3,1 -6,0 7 4 21 11 NW 20 0 0,0
18.03.2019 21:00:00 4,0 -7,1 11 6 20 11 NNW 20 0 0,0
18.03.2019 20:00:00 5,2 -7,1 7 4 22 12 NNW 20 0 0,0
18.03.2019 19:00:00 6,3 -8,2 12 6 30 16 NW 20 0 -
18.03.2019 18:00:00 7,2 -10,3 15 8 36 19 NW 20 0 0,0
18.03.2019 17:00:00 8,3 -12,8 13 7 33 18 NW 20 1 0,0

tt = temperature
td = dewpoint
ff = wind speed
fx = gusts
dd = wind direction
vv = visibility
sd = sunshine duration
rr = precipitation

Next stations